Onate, Spain
Current Conditions -  °F | °C
As of 1:30 PM on Wednesday 26 Nov 2014 (Local Time) from LEVT Reporting Station
Overcast Overcast  
Wind Chill: 52°   Ceiling: 1500
Heat Index: 52°   Visibility: 6mi
Dew Point: 50°   Wind: 1mph
Humidity: 94%   Direction: NA
Pressure: 29.88"   Gusts: NA
Location:  43.03°N, 2.41°W
Report Text: LEVT 261230Z VRB01KT 9999 SCT010 OVC015 11/10 Q1012
Loading
Personal Weather Stations






























Interactive Weather Map New forecast layout! Learn more

10-Day Weather Forecast

Advertisements
Track Severe Weather on mobile